Time;durP1;ratioP1;P1;durP2;ratioP2;P2;SDS_P1;SDS_P2;PMS_P1;PMS_P2;Temp;Humidity;BMP_temperature;BMP_pressure;BME280_temperature;BME280_humidity;BME280_pressure;Samples;Min_cycle;Max_cycle;Signal;HPM_P1;HPM_P2
2022/10/23 00:02:32;;;;;;;1.55;0.57;;;21.20;38.00;;;;;;5092039;28;20237;-41
2022/10/23 00:05:03;;;;;;;1.65;0.50;;;21.20;38.20;;;;;;5090825;28;20730;-46
2022/10/23 00:07:33;;;;;;;0.85;0.50;;;21.30;38.70;;;;;;5091390;28;20222;-38
2022/10/23 00:10:04;;;;;;;1.20;0.60;;;21.30;38.80;;;;;;5092049;28;20567;-48
2022/10/23 00:12:35;;;;;;;0.85;0.40;;;21.40;39.00;;;;;;5091401;28;20202;-44
2022/10/23 00:15:08;;;;;;;0.93;0.50;;;21.40;39.20;;;;;;5092016;28;20209;-47
2022/10/23 00:17:38;;;;;;;1.80;0.40;;;21.40;39.30;;;;;;5091656;28;20275;-43
2022/10/23 00:20:10;;;;;;;0.40;0.38;;;21.50;39.50;;;;;;5092064;28;20263;-51
2022/10/23 00:22:41;;;;;;;1.75;0.50;;;21.50;39.50;;;;;;5090891;28;20206;-38
2022/10/23 00:25:12;;;;;;;1.85;0.60;;;21.50;39.60;;;;;;5090512;28;20657;-44
2022/10/23 00:27:43;;;;;;;2.10;0.60;;;21.50;39.50;;;;;;5090610;28;20705;-46
2022/10/23 00:30:16;;;;;;;0.73;0.47;;;21.60;39.60;;;;;;5089529;28;20697;-41
2022/10/23 00:32:46;;;;;;;1.85;0.50;;;21.60;39.60;;;;;;5089771;28;20198;-44
2022/10/23 00:35:17;;;;;;;0.60;0.45;;;21.70;39.70;;;;;;5089926;28;20206;-39
2022/10/23 00:37:48;;;;;;;2.15;0.50;;;21.70;39.80;;;;;;5090193;28;20284;-41
2022/10/23 00:40:19;;;;;;;0.55;0.40;;;21.80;39.90;;;;;;5090074;28;20569;-44
2022/10/23 00:42:49;;;;;;;1.45;0.50;;;21.80;39.90;;;;;;5088333;28;20297;-41
2022/10/23 00:45:30;;;;;;;1.23;0.60;;;21.90;40.00;;;;;;5090181;28;20205;-40
2022/10/23 00:48:01;;;;;;;0.47;0.32;;;21.90;40.00;;;;;;5086188;28;20232;-43
2022/10/23 00:50:33;;;;;;;0.65;0.55;;;21.90;40.00;;;;;;5089430;28;20230;-41
2022/10/23 00:53:05;;;;;;;0.55;0.45;;;21.90;39.80;;;;;;5091246;28;20238;-48
2022/10/23 00:55:37;;;;;;;0.82;0.30;;;22.00;39.80;;;;;;5089675;28;20283;-38
2022/10/23 00:58:08;;;;;;;0.70;0.38;;;22.00;39.80;;;;;;5090313;28;20767;-56
2022/10/23 01:00:48;;;;;;;1.13;0.57;;;22.00;39.70;;;;;;5091539;28;20209;-42
2022/10/23 01:03:20;;;;;;;0.73;0.43;;;22.10;39.60;;;;;;5083192;28;20210;-51
2022/10/23 01:05:55;;;;;;;0.32;0.30;;;22.10;39.50;;;;;;5091011;28;20198;-48
2022/10/23 01:08:33;;;;;;;1.05;0.38;;;22.20;39.50;;;;;;5070190;28;20267;-38
2022/10/23 01:11:11;;;;;;;0.45;0.43;;;22.20;39.40;;;;;;5071616;28;20881;-40
2022/10/23 01:13:51;;;;;;;1.00;0.43;;;22.20;39.40;;;;;;5090038;28;20278;-40
2022/10/23 01:16:28;;;;;;;0.77;0.45;;;22.30;39.50;;;;;;5088033;28;20270;-40
2022/10/23 01:19:05;;;;;;;0.50;0.40;;;22.30;40.20;;;;;;5090974;28;20287;-42
2022/10/23 01:21:48;;;;;;;1.48;0.60;;;22.30;39.70;;;;;;5091150;28;20599;-41
2022/10/23 01:24:36;;;;;;;2.08;1.10;;;22.40;39.70;;;;;;5089964;28;20624;-38
2022/10/23 01:27:26;;;;;;;1.67;1.10;;;22.40;39.60;;;;;;5090192;28;20219;-42
2022/10/23 01:30:07;;;;;;;2.70;1.00;;;22.40;39.60;;;;;;5091354;28;20263;-39
2022/10/23 01:32:46;;;;;;;1.45;1.08;;;22.50;39.70;;;;;;5090499;28;20619;-43
2022/10/23 01:35:22;;;;;;;1.13;0.95;;;22.50;39.80;;;;;;5090461;28;20227;-48
2022/10/23 01:38:00;;;;;;;2.20;1.00;;;22.50;39.80;;;;;;5089824;28;20271;-45
2022/10/23 01:40:36;;;;;;;2.10;1.15;;;22.60;39.80;;;;;;5090504;28;20255;-44
2022/10/23 01:43:15;;;;;;;1.48;1.10;;;22.60;39.80;;;;;;5093074;28;20202;-48
2022/10/23 01:45:49;;;;;;;1.48;0.90;;;22.70;39.90;;;;;;5094006;28;20294;-41
2022/10/23 01:48:23;;;;;;;1.17;0.77;;;22.70;39.80;;;;;;5093816;28;20204;-45
2022/10/23 01:50:57;;;;;;;1.33;0.98;;;22.70;39.80;;;;;;5094213;28;20221;-38
2022/10/23 01:53:31;;;;;;;1.13;0.80;;;22.80;39.70;;;;;;5093483;28;20213;-45
2022/10/23 01:56:03;;;;;;;3.10;1.00;;;22.80;39.80;;;;;;5094334;28;20305;-39
2022/10/23 01:58:38;;;;;;;1.92;0.88;;;22.80;39.70;;;;;;5093744;28;20198;-47
2022/10/23 02:01:10;;;;;;;1.52;0.80;;;22.90;39.60;;;;;;5094637;28;20205;-47
2022/10/23 02:03:43;;;;;;;0.90;0.75;;;22.90;39.60;;;;;;5094806;28;20210;-47
2022/10/23 02:06:14;;;;;;;1.20;0.70;;;23.00;39.80;;;;;;5093023;28;20290;-52
2022/10/23 02:08:45;;;;;;;1.30;0.70;;;23.00;40.00;;;;;;5093996;28;20205;-45
2022/10/23 02:11:17;;;;;;;1.35;0.88;;;23.00;40.00;;;;;;5093572;28;20225;-48
2022/10/23 02:13:58;;;;;;;3.08;0.80;;;23.10;39.90;;;;;;5093931;28;20210;-39
2022/10/23 02:16:36;;;;;;;1.50;0.63;;;23.10;39.70;;;;;;5093714;28;20287;-50
2022/10/23 02:19:14;;;;;;;1.27;0.60;;;23.10;39.80;;;;;;5093748;28;20209;-45
2022/10/23 02:21:53;;;;;;;1.55;0.57;;;23.20;39.80;;;;;;5094247;28;20210;-54
2022/10/23 02:24:28;;;;;;;0.47;0.47;;;23.20;39.60;;;;;;5093366;28;20292;-41
2022/10/23 02:27:00;;;;;;;1.95;0.82;;;23.30;39.80;;;;;;5093303;28;20270;-38
2022/10/23 02:29:37;;;;;;;3.45;0.70;;;23.30;39.80;;;;;;5093883;28;20198;-43
2022/10/23 02:32:10;;;;;;;1.23;0.70;;;23.40;39.90;;;;;;5093283;28;20721;-39
2022/10/23 02:34:41;;;;;;;1.70;0.80;;;23.30;39.90;;;;;;5093700;28;20232;-51
2022/10/23 02:37:11;;;;;;;2.10;0.70;;;23.40;39.80;;;;;;5093032;28;20214;-38
2022/10/23 02:39:42;;;;;;;0.90;0.60;;;23.40;39.80;;;;;;5093000;28;20578;-43
2022/10/23 02:42:19;;;;;;;1.65;0.70;;;23.50;39.80;;;;;;5092888;28;20227;-40
2022/10/23 02:45:02;;;;;;;1.98;0.90;;;23.50;38.60;;;;;;5093367;28;20206;-48
2022/10/23 02:47:47;;;;;;;1.83;0.73;;;23.50;37.70;;;;;;5093366;28;20229;-38
2022/10/23 02:50:27;;;;;;;2.00;0.98;;;23.60;37.30;;;;;;5090769;28;20222;-44
2022/10/23 02:53:05;;;;;;;2.58;1.02;;;23.70;37.10;;;;;;5091550;28;20237;-39
2022/10/23 02:55:46;;;;;;;2.63;0.75;;;23.70;36.80;;;;;;5092691;28;20205;-41
2022/10/23 02:58:25;;;;;;;4.05;0.70;;;23.70;36.40;;;;;;5093008;28;20205;-41
2022/10/23 03:01:01;;;;;;;0.77;0.60;;;23.80;36.00;;;;;;5092715;28;20661;-41
2022/10/23 03:03:36;;;;;;;1.75;0.70;;;23.80;35.70;;;;;;5092859;28;20194;-39
2022/10/23 03:06:07;;;;;;;3.15;0.80;;;23.90;35.60;;;;;;5092715;28;20275;-39
2022/10/23 03:08:45;;;;;;;1.92;0.80;;;23.90;35.40;;;;;;5093174;28;20666;-41
2022/10/23 03:11:15;;;;;;;4.10;0.82;;;24.00;35.30;;;;;;5092921;28;20620;-48
2022/10/23 03:13:46;;;;;;;2.72;0.90;;;24.00;35.20;;;;;;5093359;28;20239;-41
2022/10/23 03:16:19;;;;;;;1.90;0.85;;;24.00;35.30;;;;;;5093353;28;20222;-42
2022/10/23 03:18:49;;;;;;;2.65;0.70;;;24.10;35.00;;;;;;5092071;28;20206;-42
2022/10/23 03:21:20;;;;;;;2.03;0.93;;;24.10;34.90;;;;;;5093528;28;20202;-41
2022/10/23 03:23:50;;;;;;;2.17;0.70;;;24.20;35.60;;;;;;5092121;28;20201;-39
2022/10/23 03:26:21;;;;;;;1.92;0.70;;;24.20;35.00;;;;;;5092539;28;20222;-40
2022/10/23 03:28:52;;;;;;;2.72;0.73;;;24.30;34.80;;;;;;5092466;28;20677;-42
2022/10/23 03:31:24;;;;;;;2.22;0.68;;;24.30;34.80;;;;;;5092216;28;20226;-41
2022/10/23 03:33:55;;;;;;;2.67;0.80;;;24.30;34.50;;;;;;5091634;28;20206;-42
2022/10/23 03:36:25;;;;;;;3.08;0.70;;;24.40;35.00;;;;;;5092322;28;20226;-42
2022/10/23 03:38:59;;;;;;;2.10;0.60;;;24.40;35.20;;;;;;5092966;28;20662;-40
2022/10/23 03:41:29;;;;;;;3.33;0.90;;;24.50;35.50;;;;;;5091605;28;20222;-39
2022/10/23 03:44:00;;;;;;;2.85;0.73;;;24.50;35.60;;;;;;5092793;28;20194;-39
2022/10/23 03:46:32;;;;;;;1.20;0.68;;;24.50;35.80;;;;;;5092272;28;20222;-39
2022/10/23 03:49:03;;;;;;;1.40;0.60;;;24.60;35.90;;;;;;5091042;28;20213;-39
2022/10/23 03:51:34;;;;;;;1.95;0.60;;;24.60;36.00;;;;;;5091185;28;20225;-40
2022/10/23 03:54:04;;;;;;;9.07;1.17;;;24.60;36.10;;;;;;5091328;28;20206;-57
2022/10/23 03:56:35;;;;;;;11.13;1.40;;;24.70;36.40;;;;;;5090313;28;20701;-50
2022/10/23 03:59:06;;;;;;;8.20;1.15;;;24.70;35.30;;;;;;5090907;28;20201;-48
2022/10/23 04:01:38;;;;;;;4.47;0.93;;;24.70;35.50;;;;;;5090827;28;20631;-46
2022/10/23 04:04:09;;;;;;;6.00;1.10;;;24.80;35.50;;;;;;5090539;28;20221;-45
2022/10/23 04:06:39;;;;;;;5.93;0.90;;;24.80;35.70;;;;;;5090878;28;20716;-45
2022/10/23 04:09:10;;;;;;;3.03;1.30;;;24.80;35.80;;;;;;5090611;28;20213;-46
2022/10/23 04:11:41;;;;;;;3.25;0.90;;;24.90;35.90;;;;;;5090375;28;20693;-47
2022/10/23 04:14:14;;;;;;;3.80;0.88;;;24.90;36.00;;;;;;5090631;28;20618;-45
2022/10/23 04:16:46;;;;;;;5.90;1.45;;;24.90;36.10;;;;;;5090628;28;20226;-44
2022/10/23 04:19:17;;;;;;;2.83;0.90;;;24.90;36.20;;;;;;5090702;28;20202;-44
2022/10/23 04:21:48;;;;;;;3.13;1.20;;;25.00;36.40;;;;;;5090754;28;20630;-49
2022/10/23 04:24:18;;;;;;;3.60;0.95;;;25.00;36.60;;;;;;5091230;28;20206;-49
2022/10/23 04:26:49;;;;;;;3.45;1.15;;;25.00;36.70;;;;;;5090156;28;20214;-42
2022/10/23 04:29:21;;;;;;;3.58;1.13;;;25.00;36.70;;;;;;5090720;28;20205;-41
2022/10/23 04:31:54;;;;;;;2.85;1.10;;;25.10;36.70;;;;;;5090779;28;20298;-48
2022/10/23 04:34:24;;;;;;;3.08;1.30;;;25.10;36.60;;;;;;5069820;28;20268;-48
2022/10/23 04:36:55;;;;;;;4.97;1.55;;;25.10;36.80;;;;;;5069993;28;20283;-45
2022/10/23 04:39:26;;;;;;;4.60;1.40;;;25.10;36.60;;;;;;5070355;28;20206;-42
2022/10/23 04:41:58;;;;;;;2.00;1.00;;;25.10;36.50;;;;;;5071505;28;20626;-47
2022/10/23 04:44:29;;;;;;;4.20;1.15;;;25.10;36.70;;;;;;5085936;28;20202;-45
2022/10/23 04:47:02;;;;;;;3.60;1.35;;;25.10;36.70;;;;;;5084617;28;20707;-45
2022/10/23 04:49:32;;;;;;;4.10;1.08;;;25.20;36.60;;;;;;5090031;28;20202;-45
2022/10/23 04:52:03;;;;;;;1.77;0.95;;;25.20;36.40;;;;;;5089709;28;20681;-39
2022/10/23 04:54:39;;;;;;;3.08;1.10;;;25.20;36.30;;;;;;5089833;28;20206;-50
2022/10/23 04:57:09;;;;;;;2.38;0.98;;;25.10;36.10;;;;;;5089429;28;20230;-41
2022/10/23 04:59:41;;;;;;;3.20;1.15;;;25.20;36.30;;;;;;5090183;28;20213;-41
2022/10/23 05:02:14;;;;;;;2.75;1.20;;;25.10;36.40;;;;;;5089800;28;20202;-41
2022/10/23 05:04:45;;;;;;;1.83;1.00;;;25.20;36.80;;;;;;5090045;28;20271;-42
2022/10/23 05:07:15;;;;;;;3.45;1.10;;;25.20;36.90;;;;;;5089755;28;20218;-42
2022/10/23 05:09:46;;;;;;;2.80;1.00;;;25.20;36.60;;;;;;5090167;28;20202;-46
2022/10/23 05:12:17;;;;;;;3.90;1.02;;;25.20;36.50;;;;;;5088280;28;20214;-43
2022/10/23 05:14:47;;;;;;;3.50;0.93;;;25.20;36.40;;;;;;5078880;28;20217;-41
2022/10/23 05:17:23;;;;;;;1.85;1.10;;;25.20;36.30;;;;;;5089561;28;20272;-45
2022/10/23 05:19:55;;;;;;;1.73;0.90;;;25.20;36.30;;;;;;5089434;28;20684;-43
2022/10/23 05:22:28;;;;;;;3.05;0.98;;;25.20;36.50;;;;;;5090118;28;20202;-44
2022/10/23 05:25:00;;;;;;;3.05;1.10;;;25.20;36.40;;;;;;5090473;28;20701;-40
2022/10/23 05:27:31;;;;;;;1.88;0.68;;;25.20;36.30;;;;;;5089290;28;20225;-41
2022/10/23 05:30:02;;;;;;;2.75;0.90;;;25.10;36.20;;;;;;5090164;28;20723;-40
2022/10/23 05:32:35;;;;;;;1.73;0.77;;;25.20;36.30;;;;;;5089906;28;20257;-40
2022/10/23 05:35:10;;;;;;;2.90;0.90;;;25.10;36.10;;;;;;5089954;28;20247;-40
2022/10/23 05:37:43;;;;;;;2.05;0.85;;;25.10;36.20;;;;;;5090064;28;20865;-41
2022/10/23 05:40:14;;;;;;;1.30;0.80;;;25.10;36.30;;;;;;5089886;28;20263;-44
2022/10/23 05:42:45;;;;;;;1.92;0.80;;;25.10;36.30;;;;;;5089355;28;20675;-39
2022/10/23 05:45:15;;;;;;;2.00;0.70;;;25.10;36.30;;;;;;5089811;28;20267;-39
2022/10/23 05:47:50;;;;;;;1.75;0.93;;;25.20;36.40;;;;;;5089772;28;20222;-39
2022/10/23 05:50:20;;;;;;;2.58;0.73;;;25.10;36.40;;;;;;5089685;28;20206;-43
2022/10/23 05:52:51;;;;;;;2.65;1.08;;;25.10;36.40;;;;;;5089212;28;20271;-47
2022/10/23 05:55:22;;;;;;;1.58;0.80;;;25.10;36.40;;;;;;5089109;28;20214;-42
2022/10/23 05:57:52;;;;;;;2.35;0.80;;;25.10;36.20;;;;;;5088688;28;20602;-40
2022/10/23 06:00:23;;;;;;;1.67;0.65;;;25.10;36.00;;;;;;5083990;28;20195;-41
2022/10/23 06:02:55;;;;;;;1.10;0.65;;;25.10;35.90;;;;;;5077933;28;20267;-39
2022/10/23 06:05:26;;;;;;;1.40;0.80;;;25.10;35.70;;;;;;5089411;28;20735;-45
2022/10/23 06:08:00;;;;;;;1.27;0.65;;;25.10;35.80;;;;;;5089507;28;20237;-41
2022/10/23 06:10:32;;;;;;;1.38;0.57;;;25.10;35.80;;;;;;5089465;28;20255;-45
2022/10/23 06:13:03;;;;;;;1.40;0.63;;;25.00;35.70;;;;;;5088591;28;20601;-46
2022/10/23 06:15:33;;;;;;;1.63;0.80;;;25.00;35.80;;;;;;5089259;28;20198;-50
2022/10/23 06:18:07;;;;;;;1.90;0.80;;;25.00;35.80;;;;;;5088822;28;20222;-50
2022/10/23 06:20:39;;;;;;;0.90;0.60;;;25.00;35.70;;;;;;5088616;28;20206;-49
2022/10/23 06:23:10;;;;;;;2.58;0.90;;;25.00;35.70;;;;;;5089362;28;20251;-42
2022/10/23 06:25:40;;;;;;;0.93;0.70;;;25.00;34.80;;;;;;5088714;28;20255;-48
2022/10/23 06:28:11;;;;;;;2.15;1.02;;;24.90;34.90;;;;;;5088382;28;20288;-45
2022/10/23 06:30:42;;;;;;;2.67;0.80;;;24.90;34.80;;;;;;5092397;28;20214;-45
2022/10/23 06:33:15;;;;;;;3.60;1.15;;;24.90;35.40;;;;;;5092590;28;20275;-49
2022/10/23 06:35:45;;;;;;;2.47;0.95;;;24.80;34.70;;;;;;5092553;28;20225;-49
2022/10/23 06:38:16;;;;;;;2.50;0.80;;;24.80;34.90;;;;;;5093038;28;20205;-42
2022/10/23 06:40:53;;;;;;;4.18;1.30;;;24.80;34.80;;;;;;5092584;28;20266;-46
2022/10/23 06:43:23;;;;;;;4.93;1.00;;;24.80;34.70;;;;;;5092041;28;20534;-51
2022/10/23 06:45:54;;;;;;;1.55;0.90;;;24.70;34.60;;;;;;5092514;28;20213;-43
2022/10/23 06:48:27;;;;;;;2.80;0.85;;;24.70;34.50;;;;;;5092499;28;20292;-44
2022/10/23 06:50:57;;;;;;;3.30;0.93;;;24.70;34.60;;;;;;5092305;28;20210;-50
2022/10/23 06:53:28;;;;;;;2.40;0.82;;;24.60;34.70;;;;;;5092150;28;20209;-40
2022/10/23 06:56:02;;;;;;;1.92;0.80;;;24.60;34.80;;;;;;5092469;28;20259;-47
2022/10/23 06:58:33;;;;;;;1.85;0.60;;;24.50;34.80;;;;;;5091897;28;20202;-42
2022/10/23 07:01:04;;;;;;;4.07;0.70;;;24.50;34.80;;;;;;5091902;28;20425;-49
2022/10/23 07:03:37;;;;;;;2.08;0.80;;;24.50;34.90;;;;;;5091677;28;20262;-48
2022/10/23 07:06:08;;;;;;;1.80;0.90;;;24.50;35.00;;;;;;5091166;28;20222;-44
2022/10/23 07:08:40;;;;;;;2.88;0.90;;;24.40;34.90;;;;;;5091015;28;20255;-45
2022/10/23 07:11:11;;;;;;;1.90;0.70;;;24.40;35.00;;;;;;5091746;28;20548;-46
2022/10/23 07:13:43;;;;;;;1.25;0.60;;;24.40;35.00;;;;;;5091394;28;20203;-47
2022/10/23 07:16:15;;;;;;;2.58;0.90;;;24.30;35.00;;;;;;5092142;28;20573;-44
2022/10/23 07:18:48;;;;;;;1.55;0.80;;;24.30;35.00;;;;;;5092099;28;20807;-42
2022/10/23 07:21:19;;;;;;;2.03;0.55;;;24.30;34.90;;;;;;5091872;28;20519;-48
2022/10/23 07:23:50;;;;;;;1.42;0.70;;;24.30;35.00;;;;;;5091924;28;20208;-44
2022/10/23 07:26:20;;;;;;;3.22;0.50;;;24.20;34.80;;;;;;5091251;28;20279;-44
2022/10/23 07:28:53;;;;;;;2.70;0.80;;;24.20;34.90;;;;;;5089456;28;20267;-44
2022/10/23 07:31:25;;;;;;;2.83;0.90;;;24.20;35.00;;;;;;5091733;28;20247;-44
2022/10/23 07:33:57;;;;;;;4.32;0.82;;;24.20;35.00;;;;;;5091605;28;20206;-51
2022/10/23 07:36:28;;;;;;;2.50;0.70;;;24.10;35.10;;;;;;5091541;28;20222;-48
2022/10/23 07:38:59;;;;;;;1.25;0.60;;;24.00;35.00;;;;;;5088055;28;20212;-42
2022/10/23 07:41:29;;;;;;;1.67;0.70;;;24.00;35.10;;;;;;5088146;28;20202;-46
2022/10/23 07:44:00;;;;;;;2.08;0.70;;;24.00;35.20;;;;;;5091890;28;20236;-48
2022/10/23 07:46:31;;;;;;;1.35;0.68;;;24.00;35.10;;;;;;5092591;28;20226;-39
2022/10/23 07:49:03;;;;;;;1.13;0.70;;;24.00;35.20;;;;;;5090146;28;20226;-42
2022/10/23 07:51:34;;;;;;;2.22;0.88;;;24.00;35.10;;;;;;5091759;28;20221;-43
2022/10/23 07:54:05;;;;;;;1.33;0.77;;;23.90;35.10;;;;;;5092245;28;20202;-41
2022/10/23 07:56:36;;;;;;;1.55;0.60;;;23.80;35.10;;;;;;5091542;28;20574;-49
2022/10/23 07:59:06;;;;;;;1.48;0.77;;;23.80;35.10;;;;;;5092059;28;20242;-42
2022/10/23 08:01:39;;;;;;;0.95;0.77;;;23.80;35.10;;;;;;5091630;28;20205;-46
2022/10/23 08:04:13;;;;;;;0.98;0.50;;;23.80;35.20;;;;;;5092275;28;20201;-51
2022/10/23 08:06:43;;;;;;;3.78;0.80;;;23.70;35.20;;;;;;5092266;28;20591;-47
2022/10/23 08:09:14;;;;;;;1.35;0.70;;;23.70;35.30;;;;;;5091574;28;20267;-45
2022/10/23 08:11:45;;;;;;;1.73;0.65;;;23.70;35.50;;;;;;5091605;28;20310;-44
2022/10/23 08:14:15;;;;;;;1.65;0.65;;;23.60;35.40;;;;;;5092299;28;20700;-47
2022/10/23 08:16:46;;;;;;;3.45;0.52;;;23.60;35.50;;;;;;5091415;28;20312;-47
2022/10/23 08:19:19;;;;;;;2.25;0.65;;;23.60;35.50;;;;;;5091443;28;20228;-49
2022/10/23 08:21:53;;;;;;;2.05;0.50;;;23.60;35.50;;;;;;5090986;28;20202;-39
2022/10/23 08:24:24;;;;;;;1.05;0.50;;;23.60;35.50;;;;;;5091206;28;20211;-48
2022/10/23 08:26:55;;;;;;;2.35;0.70;;;23.50;35.50;;;;;;5090923;28;20226;-47
2022/10/23 08:29:25;;;;;;;3.88;0.82;;;23.50;35.50;;;;;;5091037;28;20210;-41
2022/10/23 08:31:56;;;;;;;1.30;0.60;;;23.40;35.40;;;;;;5091121;28;20230;-50
2022/10/23 08:34:30;;;;;;;2.15;0.70;;;23.40;35.50;;;;;;5090634;28;20198;-47
2022/10/23 08:37:02;;;;;;;2.67;0.85;;;23.40;35.60;;;;;;5091086;28;20230;-45
2022/10/23 08:39:33;;;;;;;2.05;0.70;;;23.40;35.60;;;;;;5091272;28;20201;-44
2022/10/23 08:42:04;;;;;;;1.50;0.70;;;23.30;35.70;;;;;;5091690;28;20210;-45
2022/10/23 08:44:40;;;;;;;2.60;0.75;;;23.30;35.80;;;;;;5090499;28;20297;-49
2022/10/23 08:47:14;;;;;;;1.15;0.70;;;23.30;35.90;;;;;;5091569;28;20229;-41
2022/10/23 08:49:52;;;;;;;1.05;0.75;;;23.30;36.00;;;;;;5090962;28;20197;-44
2022/10/23 08:52:27;;;;;;;1.30;0.55;;;23.30;36.10;;;;;;5090242;28;20218;-42
2022/10/23 08:55:08;;;;;;;2.40;0.80;;;23.20;36.00;;;;;;5090650;28;20194;-39
2022/10/23 08:57:44;;;;;;;4.05;1.00;;;23.20;36.10;;;;;;5090796;28;20232;-39
2022/10/23 09:00:17;;;;;;;3.50;0.88;;;23.20;36.00;;;;;;5077878;28;20198;-41
2022/10/23 09:02:50;;;;;;;1.20;0.70;;;23.10;36.00;;;;;;5090573;28;20206;-38
2022/10/23 09:05:28;;;;;;;3.55;1.00;;;23.10;36.10;;;;;;5090850;28;20200;-41
2022/10/23 09:08:15;;;;;;;2.08;0.80;;;23.10;36.30;;;;;;5089807;28;20214;-40
2022/10/23 09:11:03;;;;;;;1.55;0.70;;;23.00;36.50;;;;;;5090640;28;20201;-43
2022/10/23 09:14:01;;;;;;;4.45;0.98;;;23.00;36.60;;;;;;5090893;28;20615;-46
2022/10/23 09:16:54;;;;;;;1.83;0.80;;;23.00;36.80;;;;;;5091169;28;20711;-42
2022/10/23 09:19:28;;;;;;;2.63;0.70;;;23.00;36.90;;;;;;5090019;28;20653;-46
2022/10/23 09:22:01;;;;;;;1.38;0.65;;;22.90;37.00;;;;;;5072625;28;20206;-45
2022/10/23 09:24:32;;;;;;;1.95;0.80;;;22.90;37.10;;;;;;5090676;28;20209;-49
2022/10/23 09:27:03;;;;;;;2.20;0.60;;;22.90;37.10;;;;;;5070056;28;20276;-53
2022/10/23 09:29:36;;;;;;;1.73;0.82;;;22.90;37.20;;;;;;5085400;28;20209;-47
2022/10/23 09:32:08;;;;;;;2.05;0.70;;;22.90;37.30;;;;;;5090267;28;20288;-45
2022/10/23 09:34:39;;;;;;;2.42;0.75;;;22.80;37.30;;;;;;5089913;28;20220;-42
2022/10/23 09:37:25;;;;;;;1.67;0.70;;;22.80;37.30;;;;;;5090433;28;20279;-46
2022/10/23 09:40:18;;;;;;;3.03;0.52;;;22.80;37.40;;;;;;5090728;28;20205;-45
2022/10/23 09:42:57;;;;;;;2.22;0.93;;;22.70;37.50;;;;;;5090787;28;20205;-38
2022/10/23 09:45:32;;;;;;;1.98;0.80;;;22.70;37.50;;;;;;5090185;28;20194;-39
2022/10/23 09:48:14;;;;;;;2.50;0.80;;;22.70;37.50;;;;;;5090634;28;20684;-38
2022/10/23 09:50:53;;;;;;;3.17;1.00;;;22.70;37.60;;;;;;5090597;28;20548;-40
2022/10/23 09:53:33;;;;;;;1.00;0.65;;;22.60;37.70;;;;;;5090985;28;20257;-39
2022/10/23 09:56:06;;;;;;;2.10;0.90;;;22.60;37.80;;;;;;5090431;28;20216;-38
2022/10/23 09:58:40;;;;;;;1.88;0.70;;;22.60;37.80;;;;;;5090271;28;20218;-40
2022/10/23 10:01:25;;;;;;;2.13;0.85;;;22.60;37.90;;;;;;5089971;28;20565;-38
2022/10/23 10:03:56;;;;;;;3.47;1.00;;;22.50;37.90;;;;;;5092834;28;20711;-43
2022/10/23 10:06:29;;;;;;;2.00;0.60;;;22.50;38.00;;;;;;5094091;28;20226;-38
2022/10/23 10:09:04;;;;;;;2.00;1.08;;;22.50;38.00;;;;;;5094211;28;20240;-41
2022/10/23 10:11:41;;;;;;;1.45;0.85;;;22.50;38.00;;;;;;5094354;28;20202;-38
2022/10/23 10:14:43;;;;;;;2.15;0.70;;;22.50;38.10;;;;;;5093376;28;20267;-38
2022/10/23 10:17:21;;;;;;;2.33;0.73;;;22.40;38.20;;;;;;5094559;28;20738;-39
2022/10/23 10:20:08;;;;;;;2.60;0.95;;;22.40;38.30;;;;;;5094260;28;20202;-50
2022/10/23 10:22:44;;;;;;;2.15;0.82;;;22.40;38.40;;;;;;5094577;28;20228;-44
2022/10/23 10:25:22;;;;;;;2.58;1.08;;;22.40;38.40;;;;;;5092995;28;20269;-45
2022/10/23 10:28:03;;;;;;;3.40;1.15;;;22.40;38.50;;;;;;5093528;28;20221;-49
2022/10/23 10:30:42;;;;;;;2.58;1.00;;;22.30;38.50;;;;;;5093235;28;20280;-44
2022/10/23 10:33:19;;;;;;;2.05;0.70;;;22.30;38.50;;;;;;5094228;28;20247;-40
2022/10/23 10:35:54;;;;;;;2.08;0.70;;;22.30;38.60;;;;;;5092898;28;20201;-44
2022/10/23 10:38:46;;;;;;;1.95;0.77;;;22.20;38.50;;;;;;5093603;28;20202;-42
2022/10/23 10:41:46;;;;;;;2.25;0.80;;;22.20;38.50;;;;;;5093799;28;20202;-48
2022/10/23 10:44:51;;;;;;;4.65;1.15;;;22.20;38.40;;;;;;5072919;28;20207;-46
2022/10/23 10:47:26;;;;;;;4.43;1.20;;;22.20;38.40;;;;;;5092606;28;20294;-44
2022/10/23 10:50:10;;;;;;;3.22;1.00;;;22.20;38.40;;;;;;5093737;28;20677;-49
2022/10/23 10:52:48;;;;;;;3.25;1.02;;;22.20;38.50;;;;;;5073184;28;20629;-42
2022/10/23 10:55:23;;;;;;;2.63;1.05;;;22.10;38.60;;;;;;5074209;28;20210;-43
2022/10/23 10:57:59;;;;;;;3.67;0.90;;;22.10;38.70;;;;;;5093398;28;20267;-50
2022/10/23 11:00:32;;;;;;;3.10;1.00;;;22.10;38.80;;;;;;5092829;28;20618;-45
2022/10/23 11:03:07;;;;;;;2.45;1.10;;;22.10;38.90;;;;;;5092638;28;20205;-44
2022/10/23 11:05:42;;;;;;;2.80;0.93;;;22.10;38.90;;;;;;5092644;28;20197;-50
2022/10/23 11:08:16;;;;;;;2.45;0.90;;;22.10;38.90;;;;;;5092470;28;20217;-48
2022/10/23 11:10:49;;;;;;;3.22;1.08;;;22.00;38.80;;;;;;5093135;28;20201;-47
2022/10/23 11:13:29;;;;;;;2.75;1.00;;;22.00;38.80;;;;;;5093086;28;20233;-48
2022/10/23 11:16:02;;;;;;;1.80;0.80;;;22.00;38.90;;;;;;5091753;28;20198;-44
2022/10/23 11:18:34;;;;;;;3.30;1.25;;;22.00;38.80;;;;;;5092488;28;20731;-43
2022/10/23 11:21:19;;;;;;;2.72;0.88;;;21.90;38.70;;;;;;5093376;28;20243;-41
2022/10/23 11:24:32;;;;;;;4.25;1.00;;;21.90;38.60;;;;;;5093059;28;20198;-44
2022/10/23 11:27:25;;;;;;;2.88;1.38;;;21.90;38.70;;;;;;5056122;28;20311;-41
2022/10/23 11:30:20;;;;;;;2.35;0.93;;;21.90;38.80;;;;;;5091387;28;20255;-41
2022/10/23 11:33:22;;;;;;;2.38;0.70;;;21.90;38.80;;;;;;5091091;28;20294;-42
2022/10/23 11:36:02;;;;;;;2.10;1.17;;;21.90;38.90;;;;;;5077399;28;20287;-46
2022/10/23 11:38:36;;;;;;;2.60;1.08;;;21.80;38.90;;;;;;5091436;28;20214;-40
2022/10/23 11:41:18;;;;;;;2.75;1.05;;;21.80;39.00;;;;;;5091315;28;20218;-38
2022/10/23 11:43:54;;;;;;;2.10;0.88;;;21.70;39.00;;;;;;5091417;28;20202;-43
2022/10/23 11:46:37;;;;;;;2.25;0.73;;;21.80;39.10;;;;;;5091010;28;20217;-42
2022/10/23 11:49:20;;;;;;;1.98;0.93;;;21.70;39.00;;;;;;5091361;28;20210;-41
2022/10/23 11:52:02;;;;;;;2.10;0.90;;;21.70;39.00;;;;;;5107876;28;20753;-41
2022/10/23 11:54:33;;;;;;;2.80;0.75;;;21.70;39.00;;;;;;5093844;28;20229;-39
2022/10/23 11:57:21;;;;;;;1.23;0.70;;;21.70;39.00;;;;;;5106341;28;20709;-38
2022/10/23 11:59:57;;;;;;;2.90;0.80;;;21.70;39.00;;;;;;5090937;28;20730;-38
2022/10/23 12:02:40;;;;;;;2.70;1.10;;;21.70;39.00;;;;;;5091139;28;20209;-44
2022/10/23 12:05:26;;;;;;;1.25;0.85;;;21.60;39.10;;;;;;5090673;28;20198;-43
2022/10/23 12:08:00;;;;;;;2.42;0.95;;;21.60;39.10;;;;;;5091172;28;20613;-44
2022/10/23 12:10:33;;;;;;;1.13;0.60;;;21.60;39.10;;;;;;5091210;28;20613;-44
2022/10/23 12:13:05;;;;;;;1.45;0.88;;;21.60;39.20;;;;;;5091266;28;20657;-46
2022/10/23 12:15:36;;;;;;;1.38;0.80;;;21.50;39.10;;;;;;5090703;28;20194;-44
2022/10/23 12:18:19;;;;;;;1.45;0.60;;;21.50;39.20;;;;;;5090670;28;20690;-41
2022/10/23 12:20:53;;;;;;;2.35;1.00;;;21.50;39.20;;;;;;5089455;28;20243;-48
2022/10/23 12:23:51;;;;;;;1.52;0.75;;;21.50;39.10;;;;;;5090234;28;20194;-41
2022/10/23 12:26:49;;;;;;;2.30;0.80;;;21.50;39.20;;;;;;5085953;28;20271;-41
2022/10/23 12:29:29;;;;;;;2.47;0.98;;;21.50;39.10;;;;;;5090918;28;20293;-43
2022/10/23 12:32:09;;;;;;;0.93;0.73;;;21.50;39.10;;;;;;5090601;28;20194;-43
2022/10/23 12:34:49;;;;;;;1.98;0.82;;;21.50;39.10;;;;;;5089974;28;20245;-40
2022/10/23 12:37:38;;;;;;;2.92;0.70;;;21.40;39.20;;;;;;5090042;28;20263;-42
2022/10/23 12:40:10;;;;;;;1.25;0.70;;;21.40;39.30;;;;;;5090740;28;20251;-43
2022/10/23 12:42:41;;;;;;;1.33;0.60;;;21.40;39.30;;;;;;5090688;28;20642;-37
2022/10/23 12:45:20;;;;;;;1.98;0.80;;;21.40;39.30;;;;;;5089939;28;20200;-46
2022/10/23 12:47:52;;;;;;;1.70;0.60;;;21.30;39.40;;;;;;5090834;28;20249;-45
2022/10/23 12:50:26;;;;;;;1.10;0.65;;;21.30;39.40;;;;;;5089936;28;20194;-44
2022/10/23 12:52:59;;;;;;;2.47;0.93;;;21.30;39.40;;;;;;5090306;28;20201;-47
2022/10/23 12:55:31;;;;;;;1.77;0.80;;;21.30;39.40;;;;;;5090268;28;20267;-47
2022/10/23 12:58:03;;;;;;;0.98;0.50;;;21.30;39.40;;;;;;5086546;28;20218;-42
2022/10/23 13:00:34;;;;;;;1.67;0.70;;;21.30;39.40;;;;;;5090522;28;20198;-43
2022/10/23 13:03:06;;;;;;;1.50;0.68;;;21.30;39.40;;;;;;5090351;28;20198;-43
2022/10/23 13:05:38;;;;;;;1.65;0.70;;;21.30;39.40;;;;;;5089750;28;20252;-44
2022/10/23 13:08:11;;;;;;;0.90;0.70;;;21.30;39.40;;;;;;5089495;28;20657;-44
2022/10/23 13:10:41;;;;;;;1.30;0.80;;;21.20;39.50;;;;;;5090174;28;20201;-46
2022/10/23 13:13:15;;;;;;;2.80;0.80;;;21.20;39.50;;;;;;5090345;28;20190;-39
2022/10/23 13:15:47;;;;;;;1.80;0.80;;;21.20;39.50;;;;;;5089805;28;20198;-45
2022/10/23 13:18:18;;;;;;;2.20;0.60;;;21.20;40.30;;;;;;5089977;28;20247;-43
2022/10/23 13:21:01;;;;;;;1.20;0.73;;;21.20;39.70;;;;;;5089943;28;20207;-41
2022/10/23 13:23:34;;;;;;;1.13;0.77;;;21.10;39.60;;;;;;5090233;28;20202;-40
2022/10/23 13:26:06;;;;;;;1.15;0.73;;;21.10;39.60;;;;;;5089883;28;20213;-46
2022/10/23 13:28:43;;;;;;;2.20;0.80;;;21.10;39.60;;;;;;5089971;28;20213;-40